Share

Culbertson, MT

3:39 PM MDT on April 24, 2014 (GMT -0600)
RAWS MEDICINE LAKE MT US (MMLKM8) Elev 1975 ft | 48.49 °N, 104.48 °W | Change Station

Current weather conditions updated 41 minutes ago

Mostly Cloudy
Mostly Cloudy
59 °F
Feels Like 59 °F
N
12
Wind Variable Wind from NW
Gusts 20.0 mph
Sunrise 5:51 AM
Sunset 8:01 PM
Moon Waning Crescent

Today is forecast to be nearly the same temperature as yesterday.

Pressure 29.74 in
Visibility 10.0 miles
Clouds Few 7000 ft
Mostly Cloudy 10000 ft
Dew Point 27 °F
Humidity 29%
Rainfall 0.02 in
Snow Depth Not available.
UV 3 out of 16
Pollen 9.40 out of 12
Air Quality Not available.
Flu Activity Sporadic
METAR KSDY 242135Z AUTO 33010KT 280V350 10SM FEW070 BKN100 15/M03 A2974 RMK AO1

More Conditions Fewer Conditions

Pressure 29.74 in
Visibility 10.0 miles
Clouds Few 7000 ft
Mostly Cloudy 10000 ft
Dew Point 27 °F
Humidity 29%
Rainfall 0.02 in
Snow Depth Not available.
UV 3 out of 16
Pollen 9.40 out of 12
Air Quality Not available.
Flu Activity Sporadic
METAR KSDY 242135Z AUTO 33010KT 280V350 10SM FEW070 BKN100 15/M03 A2974 RMK AO1

More Conditions Fewer Conditions

10-Day Weather Forecast

Almanac

Astronomy

Apr. 24, 2014 Rise Set
Actual Time 5:51 AM MDT 8:01 PM MDT
Civil Twilight 5:17 AM MDT 8:35 PM MDT
Nautical Twilight 4:35 AM MDT 9:18 PM MDT
Astronomical Twilight 3:48 AM MDT 10:05 PM MDT
Moon 3:27 AM MDT 2:58 PM MDT
Length of Visible Light 15h 18m
Length of Day
14h 10m
Tomorrow will be 3m 13s longer.
Waning Crescent, 22% of the Moon is Illuminated
Today
Waning Crescent
Apr 29
New
May 6
First Quarter
May 14
Full
May 21
Last Quarter

Today's Extremes

State Highs State Lows

Community

  • Jone Runs Falls
    Jone Runs Falls
  • Sunset at Apalachicola Bay, Florida
    Sunset at Apalachicola Bay, Florida
  • Clouds mov'n in
    Clouds mov'n in
  • Stacked
    Stacked
  • clouds approaching Red Sox Nation
    clouds approaching Red Sox Nation

WunderPhotos

Upload Photos

1,704,718 photos uploaded!

Nearby

Snow Depth

Station Depth Elevation
Crystal Lake 50 in 6050 ft
Daisy Peak 48 in 7600 ft
Spur Park 86 in 8100 ft
Deadman Creek 37 in 6450 ft
Cole Creek 67 in 7850 ft

Coastal Water Temperatures

Place Temperature
No Stations Reporting

Earthquake Activity

City Distance Mag. Time & Date
No recent earthquake activity has been reported nearby.
Minimum magnitude displayed is 2.5.

Nearby Weather Stations

Station Location Temp. Dew Point Humidity Wind Precip. Elev Updated Type
APRSWXNET Girard Hall MT , Crane, MT 55 °F 30 °F 38% WNW  at  9 mph 0.00 in / hr 2267 ft 2:30 PM MDT MADIS
RAWS MEDICINE LAKE MT, Medicine Lake, MT 59 °F 27 °F 29% NW  at  12 mph 0.00 in / hr 1975 ft 2:58 PM MDT MADIS

Show More Stations Show Fewer Stations

What do you think?

We're not finished. Please let us know what you like, what you don't like, and what you are still missing.